createdAt,value
2019-05-20T00:00:50.816Z,11.03
2019-05-20T00:03:21.385Z,14.57
2019-05-20T00:05:52.108Z,14.23
2019-05-20T00:08:28.745Z,14.13
2019-05-20T00:10:59.221Z,11.90
2019-05-20T00:13:29.715Z,13.50
2019-05-20T00:16:00.192Z,12.47
2019-05-20T00:18:30.841Z,13.23
2019-05-20T00:21:01.364Z,13.27
2019-05-20T00:23:33.149Z,13.60
2019-05-20T00:26:03.620Z,10.53
2019-05-20T00:28:37.097Z,13.67
2019-05-20T00:31:07.895Z,13.20
2019-05-20T00:33:38.426Z,14.20
2019-05-20T00:36:08.912Z,14.37
2019-05-20T00:38:39.449Z,12.50
2019-05-20T00:41:09.937Z,14.17
2019-05-20T00:43:40.502Z,8.70
2019-05-20T00:46:11.220Z,9.37
2019-05-20T00:48:41.694Z,10.50
2019-05-20T00:51:12.160Z,11.97
2019-05-20T00:53:42.712Z,11.17
2019-05-20T00:56:13.258Z,8.60
2019-05-20T00:58:43.767Z,8.27
2019-05-20T01:01:14.251Z,7.77
2019-05-20T01:03:44.822Z,10.10
2019-05-20T01:06:15.516Z,9.33
2019-05-20T01:08:46.042Z,9.80
2019-05-20T01:11:16.479Z,9.20
2019-05-20T01:13:46.997Z,7.30
2019-05-20T01:16:17.466Z,8.63
2019-05-20T01:18:48.178Z,8.73
2019-05-20T01:21:18.673Z,7.40
2019-05-20T01:23:49.556Z,10.37
2019-05-20T01:26:20.144Z,8.60
2019-05-20T01:28:50.582Z,7.90
2019-05-20T01:31:21.082Z,8.07
2019-05-20T01:33:51.657Z,8.47
2019-05-20T01:36:22.126Z,8.07
2019-05-20T01:38:52.621Z,8.37
2019-05-20T01:41:23.240Z,7.37
2019-05-20T01:43:53.830Z,8.23
2019-05-20T01:46:25.357Z,7.50
2019-05-20T01:48:55.852Z,7.17
2019-05-20T01:51:26.479Z,7.57
2019-05-20T01:53:56.952Z,8.03
2019-05-20T01:56:27.400Z,8.93
2019-05-20T01:58:57.976Z,6.80
2019-05-20T02:01:28.489Z,9.33
2019-05-20T02:03:59.006Z,8.47
2019-05-20T02:06:29.506Z,8.53
2019-05-20T02:09:00.027Z,8.10
2019-05-20T02:11:30.456Z,10.80
2019-05-20T02:14:05.444Z,8.37
2019-05-20T02:16:35.998Z,8.17
2019-05-20T02:19:06.797Z,8.37
2019-05-20T02:21:39.553Z,8.57
2019-05-20T02:24:10.316Z,10.27
2019-05-20T02:26:40.920Z,13.17
2019-05-20T02:29:11.481Z,9.10
2019-05-20T02:31:42.079Z,10.73
2019-05-20T02:34:12.573Z,11.40
2019-05-20T02:36:43.031Z,12.70
2019-05-20T02:39:13.492Z,15.17
2019-05-20T02:41:44.169Z,13.33
2019-05-20T02:44:14.841Z,12.53
2019-05-20T02:46:45.303Z,15.00
2019-05-20T02:49:15.848Z,15.00
2019-05-20T02:51:46.319Z,15.53
2019-05-20T02:54:16.806Z,15.67
2019-05-20T02:56:47.306Z,20.87
2019-05-20T02:59:17.926Z,19.60
2019-05-20T03:01:48.367Z,17.13
2019-05-20T03:04:18.888Z,20.27
2019-05-20T03:06:49.380Z,25.03
2019-05-20T03:09:19.957Z,21.50
2019-05-20T03:11:50.441Z,21.30
2019-05-20T03:14:20.919Z,21.47
2019-05-20T03:16:52.513Z,18.97
2019-05-20T03:19:23.021Z,21.80
2019-05-20T03:21:54.410Z,25.57
2019-05-20T03:24:25.050Z,22.20
2019-05-20T03:26:55.747Z,30.13
2019-05-20T03:29:26.536Z,29.23
2019-05-20T03:31:57.064Z,26.37
2019-05-20T03:34:45.539Z,27.00
2019-05-20T03:36:59.770Z,32.43
2019-05-20T03:39:30.911Z,29.73
2019-05-20T03:42:01.420Z,29.07
2019-05-20T03:44:32.012Z,58.57
2019-05-20T03:47:02.513Z,53.97
2019-05-20T03:49:33.019Z,60.30
2019-05-20T03:52:03.523Z,50.53
2019-05-20T03:54:34.144Z,53.20
2019-05-20T03:57:04.691Z,62.40
2019-05-20T03:59:35.343Z,50.97
2019-05-20T04:02:05.880Z,47.33
2019-05-20T04:04:36.375Z,46.23
2019-05-20T04:07:06.955Z,41.33
2019-05-20T04:09:37.484Z,43.10
2019-05-20T04:12:07.928Z,31.77
2019-05-20T04:14:38.427Z,27.90
2019-05-20T04:17:08.888Z,33.77
2019-05-20T04:19:39.432Z,37.50
2019-05-20T04:22:09.971Z,38.83
2019-05-20T04:24:40.452Z,35.70
2019-05-20T04:27:10.936Z,41.23
2019-05-20T04:29:41.441Z,41.10
2019-05-20T04:32:13.618Z,45.13
2019-05-20T04:34:44.217Z,36.47
2019-05-20T04:37:14.697Z,38.83
2019-05-20T04:39:45.286Z,49.57
2019-05-20T04:42:15.819Z,45.57
2019-05-20T04:44:46.931Z,40.20
2019-05-20T04:47:17.431Z,40.93
2019-05-20T04:49:47.957Z,44.60
2019-05-20T04:52:18.416Z,42.00
2019-05-20T04:54:48.970Z,40.83
2019-05-20T04:57:19.544Z,42.27
2019-05-20T04:59:49.989Z,47.70
2019-05-20T05:02:20.494Z,53.17
2019-05-20T05:04:50.974Z,48.47
2019-05-20T05:07:21.650Z,49.17
2019-05-20T05:09:52.676Z,41.23
2019-05-20T05:12:25.170Z,41.40
2019-05-20T05:14:55.675Z,31.60
2019-05-20T05:17:26.357Z,37.63
2019-05-20T05:19:57.116Z,39.27
2019-05-20T05:22:27.691Z,42.20
2019-05-20T05:24:58.159Z,32.97
2019-05-20T05:27:28.653Z,41.37
2019-05-20T05:29:59.117Z,37.07
2019-05-20T05:32:42.391Z,48.63
2019-05-20T05:35:15.868Z,38.10
2019-05-20T05:37:55.289Z,42.50
2019-05-20T05:40:31.221Z,39.77
2019-05-20T05:43:01.761Z,40.07
2019-05-20T05:45:33.713Z,40.77
2019-05-20T05:48:04.948Z,38.80
2019-05-20T05:50:37.523Z,42.40
2019-05-20T05:53:08.064Z,34.93
2019-05-20T05:55:38.715Z,39.73
2019-05-20T05:58:09.454Z,33.13
2019-05-20T06:00:39.944Z,32.77
2019-05-20T06:03:12.604Z,34.43
2019-05-20T06:05:44.422Z,38.47
2019-05-20T06:08:15.030Z,41.57
2019-05-20T06:10:45.745Z,50.33
2019-05-20T06:13:16.380Z,60.67
2019-05-20T06:15:46.868Z,56.57
2019-05-20T06:18:17.370Z,59.53
2019-05-20T06:20:47.977Z,61.60
2019-05-20T06:23:18.563Z,47.77
2019-05-20T06:25:49.288Z,47.17
2019-05-20T06:28:19.775Z,49.87
2019-05-20T06:30:50.333Z,50.53
2019-05-20T06:33:20.838Z,47.80
2019-05-20T06:35:51.641Z,41.73
2019-05-20T06:38:56.555Z,35.60
2019-05-20T06:41:27.086Z,34.83
2019-05-20T06:43:57.553Z,37.77
2019-05-20T06:46:28.043Z,34.20
2019-05-20T06:48:58.530Z,33.70
2019-05-20T06:51:29.039Z,32.90
2019-05-20T06:53:59.569Z,34.10
2019-05-20T06:56:33.031Z,40.50
2019-05-20T06:59:03.852Z,44.40
2019-05-20T07:01:34.623Z,46.07
2019-05-20T07:04:05.079Z,46.07
2019-05-20T07:06:46.131Z,48.13
2019-05-20T07:09:10.835Z,55.80
2019-05-20T07:11:51.961Z,51.80
2019-05-20T07:14:14.715Z,53.37
2019-05-20T07:16:45.408Z,50.17
2019-05-20T07:19:16.022Z,54.50
2019-05-20T07:21:46.614Z,54.97
2019-05-20T07:24:17.216Z,56.27
2019-05-20T07:26:47.663Z,64.50
2019-05-20T07:29:18.344Z,57.77
2019-05-20T07:31:48.880Z,68.07
2019-05-20T07:34:19.332Z,78.37
2019-05-20T07:37:02.746Z,76.40
2019-05-20T07:39:22.043Z,78.83
2019-05-20T07:41:52.445Z,62.87
2019-05-20T07:44:22.973Z,71.50
2019-05-20T07:46:53.914Z,68.03
2019-05-20T07:49:25.294Z,71.67
2019-05-20T07:51:56.704Z,69.60
2019-05-20T07:54:27.942Z,73.00
2019-05-20T07:57:03.044Z,63.17
2019-05-20T07:59:36.051Z,65.47
2019-05-20T08:02:06.780Z,64.43
2019-05-20T08:04:37.306Z,63.07
2019-05-20T08:07:26.516Z,102.27
2019-05-20T08:09:45.694Z,71.53
2019-05-20T08:12:12.717Z,65.90
2019-05-20T08:14:43.194Z,63.53
2019-05-20T08:17:13.660Z,68.57
2019-05-20T08:19:44.190Z,58.63
2019-05-20T08:22:15.001Z,56.87
2019-05-20T08:24:45.491Z,57.13
2019-05-20T08:27:17.176Z,54.17
2019-05-20T08:29:47.615Z,55.80
2019-05-20T08:32:18.079Z,49.40
2019-05-20T08:34:48.533Z,52.50
2019-05-20T08:37:19.013Z,49.53
2019-05-20T08:39:49.817Z,48.60
2019-05-20T08:42:20.498Z,59.63
2019-05-20T08:44:51.402Z,53.57
2019-05-20T08:47:21.882Z,49.10
2019-05-20T08:49:52.753Z,46.63
2019-05-20T08:52:23.413Z,44.47
2019-05-20T08:54:53.910Z,48.23
2019-05-20T08:57:24.474Z,44.73
2019-05-20T08:59:55.173Z,39.60
2019-05-20T09:02:28.721Z,43.20
2019-05-20T09:04:59.264Z,41.43
2019-05-20T09:07:31.715Z,46.33
2019-05-20T09:10:02.278Z,40.10
2019-05-20T09:12:32.910Z,38.50
2019-05-20T09:15:03.431Z,39.97
2019-05-20T09:17:34.014Z,44.77
2019-05-20T09:20:04.600Z,41.80
2019-05-20T09:22:35.074Z,39.07
2019-05-20T09:25:07.478Z,41.03
2019-05-20T09:27:38.012Z,40.00
2019-05-20T09:30:11.129Z,38.07
2019-05-20T09:32:43.198Z,39.07
2019-05-20T09:35:14.124Z,42.30
2019-05-20T09:37:44.754Z,36.40
2019-05-20T09:40:35.275Z,39.97
2019-05-20T09:43:06.198Z,44.57
2019-05-20T09:45:36.933Z,40.77
2019-05-20T09:48:10.018Z,40.60
2019-05-20T09:50:40.763Z,38.60
2019-05-20T09:53:12.776Z,38.30
2019-05-20T09:55:43.386Z,38.33
2019-05-20T09:58:13.961Z,35.67
2019-05-20T10:00:44.485Z,41.83
2019-05-20T10:03:15.124Z,39.27
2019-05-20T10:05:45.650Z,39.20
2019-05-20T10:08:16.226Z,35.43
2019-05-20T10:10:46.853Z,38.37
2019-05-20T10:13:17.439Z,37.37
2019-05-20T10:15:48.408Z,39.10
2019-05-20T10:18:35.656Z,38.43
2019-05-20T10:20:51.244Z,37.93
2019-05-20T10:23:21.695Z,40.77
2019-05-20T10:25:52.180Z,36.00
2019-05-20T10:28:22.838Z,36.30
2019-05-20T10:30:53.470Z,37.40
2019-05-20T10:33:24.145Z,32.43
2019-05-20T10:35:55.299Z,33.77
2019-05-20T10:38:26.100Z,34.93
2019-05-20T10:40:56.739Z,33.50
2019-05-20T10:43:27.300Z,34.87
2019-05-20T10:45:58.128Z,33.70
2019-05-20T10:48:28.812Z,29.83
2019-05-20T10:50:59.361Z,27.30
2019-05-20T10:53:29.853Z,24.77
2019-05-20T10:56:02.213Z,25.10
2019-05-20T10:58:33.276Z,25.37
2019-05-20T11:01:03.978Z,26.30
2019-05-20T11:03:37.266Z,22.93
2019-05-20T11:06:07.666Z,22.27
2019-05-20T11:08:38.103Z,23.03
2019-05-20T11:11:13.894Z,22.33
2019-05-20T11:13:41.012Z,22.70
2019-05-20T11:16:11.563Z,20.60
2019-05-20T11:18:43.522Z,23.97
2019-05-20T11:21:14.191Z,21.40
2019-05-20T11:23:44.781Z,22.10
2019-05-20T11:26:15.374Z,20.07
2019-05-20T11:28:46.187Z,20.93
2019-05-20T11:31:16.833Z,20.50
2019-05-20T11:33:47.328Z,20.47
2019-05-20T11:36:18.116Z,21.60
2019-05-20T11:38:48.937Z,19.40
2019-05-20T11:41:19.448Z,22.97
2019-05-20T11:43:49.960Z,20.30
2019-05-20T11:46:20.443Z,20.47
2019-05-20T11:48:50.936Z,18.97
2019-05-20T11:51:21.441Z,24.67
2019-05-20T11:53:52.007Z,18.60
2019-05-20T11:56:23.981Z,21.87
2019-05-20T11:58:55.371Z,21.83
2019-05-20T12:01:26.201Z,26.27
2019-05-20T12:03:56.852Z,27.90
2019-05-20T12:06:28.177Z,21.97
2019-05-20T12:08:58.682Z,26.50
2019-05-20T12:11:29.249Z,24.50
2019-05-20T12:13:59.948Z,29.87
2019-05-20T12:16:30.492Z,28.93
2019-05-20T12:19:01.166Z,27.50
2019-05-20T12:21:31.903Z,32.17
2019-05-20T12:24:02.745Z,27.10
2019-05-20T12:26:34.705Z,28.20
2019-05-20T12:29:05.393Z,26.03
2019-05-20T12:31:36.044Z,22.63
2019-05-20T12:34:06.674Z,20.00
2019-05-20T12:36:37.223Z,21.20
2019-05-20T12:39:08.736Z,20.30
2019-05-20T12:41:39.323Z,17.30
2019-05-20T12:44:12.905Z,16.07
2019-05-20T12:46:42.183Z,15.07
2019-05-20T12:49:12.823Z,15.30
2019-05-20T12:51:43.647Z,16.57
2019-05-20T12:54:14.139Z,16.93
2019-05-20T12:56:44.788Z,19.63
2019-05-20T12:59:15.352Z,18.97
2019-05-20T13:01:46.004Z,15.27
2019-05-20T13:04:16.616Z,14.77
2019-05-20T13:06:47.414Z,12.80
2019-05-20T13:09:18.464Z,11.93
2019-05-20T13:11:49.044Z,8.33
2019-05-20T13:14:19.688Z,8.60
2019-05-20T13:16:53.092Z,11.07
2019-05-20T13:19:27.417Z,6.70
2019-05-20T13:22:05.846Z,15.40
2019-05-20T13:24:37.269Z,8.80
2019-05-20T13:27:07.943Z,6.83
2019-05-20T13:29:38.523Z,4.13
2019-05-20T13:32:10.217Z,5.50
2019-05-20T13:34:40.766Z,4.70
2019-05-20T13:37:11.453Z,8.47
2019-05-20T13:39:42.085Z,4.00
2019-05-20T13:42:12.809Z,3.63
2019-05-20T13:44:43.497Z,3.37
2019-05-20T13:47:14.076Z,5.13
2019-05-20T13:49:44.830Z,3.17
2019-05-20T13:52:16.697Z,2.30
2019-05-20T13:54:47.892Z,5.37
2019-05-20T13:57:18.467Z,2.90
2019-05-20T13:59:48.978Z,3.27
2019-05-20T14:02:19.632Z,2.40
2019-05-20T14:04:50.267Z,6.50
2019-05-20T14:07:20.740Z,7.07
2019-05-20T14:09:52.595Z,7.33
2019-05-20T14:12:23.722Z,5.90
2019-05-20T14:14:54.418Z,6.20
2019-05-20T14:17:25.116Z,7.47
2019-05-20T14:19:55.639Z,1.50
2019-05-20T14:22:26.319Z,1.60
2019-05-20T14:24:56.906Z,3.90
2019-05-20T14:27:27.445Z,4.30
2019-05-20T14:29:57.968Z,3.33
2019-05-20T14:32:28.511Z,3.07
2019-05-20T14:34:58.956Z,3.33
2019-05-20T14:37:29.476Z,3.33
2019-05-20T14:39:59.953Z,5.97
2019-05-20T14:42:30.893Z,7.20
2019-05-20T14:45:01.419Z,6.37
2019-05-20T14:47:31.920Z,12.60
2019-05-20T14:50:02.406Z,13.37
2019-05-20T14:52:35.389Z,16.30
2019-05-20T14:55:06.550Z,25.87
2019-05-20T14:57:37.070Z,23.37
2019-05-20T15:00:08.615Z,22.70
2019-05-20T15:02:39.175Z,22.13
2019-05-20T15:08:57.387Z,22.63
2019-05-20T15:11:37.799Z,22.83
2019-05-20T15:14:01.980Z,23.37
2019-05-20T15:16:32.966Z,20.83
2019-05-20T15:19:03.666Z,23.93
2019-05-20T15:21:34.259Z,22.60
2019-05-20T15:24:06.374Z,19.97
2019-05-20T15:26:38.296Z,18.23
2019-05-20T15:29:25.446Z,18.63
2019-05-20T15:31:41.097Z,16.23
2019-05-20T15:34:11.647Z,23.90
2019-05-20T15:36:42.264Z,15.17
2019-05-20T15:39:12.873Z,17.43
2019-05-20T15:41:43.681Z,14.97
2019-05-20T15:44:17.161Z,15.07
2019-05-20T15:46:47.661Z,15.53
2019-05-20T15:49:18.668Z,10.43
2019-05-20T15:51:50.583Z,11.17
2019-05-20T15:54:21.166Z,11.37
2019-05-20T15:56:51.656Z,13.20
2019-05-20T15:59:22.169Z,13.03
2019-05-20T16:01:52.899Z,14.23
2019-05-20T16:04:23.442Z,11.53
2019-05-20T16:06:54.012Z,11.33
2019-05-20T16:09:24.658Z,11.17
2019-05-20T16:11:55.147Z,6.07
2019-05-20T16:14:25.625Z,7.13
2019-05-20T16:16:57.460Z,10.00
2019-05-20T16:19:28.198Z,4.10
2019-05-20T16:21:58.711Z,4.77
2019-05-20T16:24:29.261Z,6.37
2019-05-20T16:27:00.577Z,4.90
2019-05-20T16:29:33.196Z,4.53
2019-05-20T16:32:03.259Z,3.47
2019-05-20T16:34:33.789Z,3.20
2019-05-20T16:37:04.388Z,3.20
2019-05-20T16:39:36.494Z,4.63
2019-05-20T16:42:07.111Z,6.97
2019-05-20T16:44:37.649Z,9.40
2019-05-20T16:47:08.178Z,5.10
2019-05-20T16:49:38.643Z,5.60
2019-05-20T16:52:09.140Z,5.13
2019-05-20T16:54:39.604Z,7.77
2019-05-20T16:57:10.092Z,7.53
2019-05-20T16:59:40.554Z,7.53
2019-05-20T17:02:11.443Z,10.53
2019-05-20T17:04:41.924Z,10.40
2019-05-20T17:07:12.415Z,8.47
2019-05-20T17:09:45.141Z,11.47
2019-05-20T17:12:18.006Z,9.30
2019-05-20T17:14:49.877Z,9.40
2019-05-20T17:17:20.405Z,11.97
2019-05-20T17:19:52.087Z,17.10
2019-05-20T17:22:22.579Z,10.60
2019-05-20T17:24:53.248Z,18.63
2019-05-20T17:27:24.025Z,18.43
2019-05-20T17:29:56.909Z,22.13
2019-05-20T17:32:27.618Z,20.63
2019-05-20T17:34:58.119Z,29.00
2019-05-20T17:37:28.859Z,21.70
2019-05-20T17:39:59.353Z,27.17
2019-05-20T17:42:29.979Z,28.30
2019-05-20T17:45:00.421Z,28.77
2019-05-20T17:47:31.886Z,35.23
2019-05-20T17:50:03.133Z,34.33
2019-05-20T17:52:33.918Z,37.03
2019-05-20T17:55:04.700Z,40.50
2019-05-20T17:57:35.271Z,41.43
2019-05-20T18:00:08.878Z,43.50
2019-05-20T18:02:41.517Z,43.27
2019-05-20T18:05:14.856Z,40.07
2019-05-20T18:07:46.567Z,45.50
2019-05-20T18:10:19.668Z,46.63
2019-05-20T18:12:51.040Z,49.37
2019-05-20T18:15:21.968Z,48.87
2019-05-20T18:17:52.812Z,47.53
2019-05-20T18:20:23.480Z,45.77
2019-05-20T18:22:55.213Z,46.50
2019-05-20T18:25:28.614Z,44.40
2019-05-20T18:27:59.365Z,51.10
2019-05-20T18:30:30.651Z,48.10
2019-05-20T18:33:01.838Z,50.23
2019-05-20T18:35:32.679Z,46.87
2019-05-20T18:38:03.584Z,48.10
2019-05-20T18:40:34.230Z,53.03
2019-05-20T18:43:04.934Z,58.70
2019-05-20T18:45:36.094Z,58.80
2019-05-20T18:48:06.968Z,62.03
2019-05-20T18:50:38.744Z,61.97
2019-05-20T18:53:10.308Z,65.13
2019-05-20T18:55:46.245Z,65.07
2019-05-20T18:58:17.009Z,62.67
2019-05-20T19:00:48.016Z,72.03
2019-05-20T19:03:19.086Z,61.30
2019-05-20T19:05:49.839Z,57.33
2019-05-20T19:08:20.609Z,62.47
2019-05-20T19:10:52.028Z,54.93
2019-05-20T19:13:22.783Z,49.73
2019-05-20T19:15:55.032Z,57.87
2019-05-20T19:18:26.071Z,58.80
2019-05-20T19:21:20.939Z,57.37
2019-05-20T19:23:51.973Z,62.07
2019-05-20T19:26:25.384Z,56.77
2019-05-20T19:28:54.967Z,53.47
2019-05-20T19:31:28.363Z,56.40
2019-05-20T19:33:59.962Z,54.70
2019-05-20T19:36:34.739Z,54.40
2019-05-20T19:39:06.717Z,57.10
2019-05-20T19:41:40.559Z,60.17
2019-05-20T19:44:13.493Z,57.10
2019-05-20T19:46:44.482Z,53.40
2019-05-20T19:49:15.507Z,52.33
2019-05-20T19:51:46.133Z,54.93
2019-05-20T19:54:16.750Z,55.70
2019-05-20T19:57:00.966Z,54.23
2019-05-20T19:59:34.332Z,59.33
2019-05-20T20:02:40.279Z,54.53
2019-05-20T20:05:24.025Z,50.07
2019-05-20T20:07:55.043Z,44.70
2019-05-20T20:10:47.065Z,47.10
2019-05-20T20:13:17.939Z,43.97
2019-05-20T20:15:49.050Z,41.40
2019-05-20T20:18:19.983Z,41.87
2019-05-20T20:20:50.602Z,42.93
2019-05-20T20:23:21.120Z,37.73
2019-05-20T20:25:51.773Z,43.17
2019-05-20T20:28:22.300Z,39.83
2019-05-20T20:30:52.813Z,40.50
2019-05-20T20:33:23.319Z,41.37
2019-05-20T20:35:53.798Z,43.27
2019-05-20T20:38:24.425Z,41.83
2019-05-20T20:40:55.079Z,47.03
2019-05-20T20:43:25.724Z,54.27
2019-05-20T20:45:57.670Z,47.27
2019-05-20T20:48:51.506Z,53.43
2019-05-20T20:51:28.022Z,22.03
2019-05-20T20:54:15.230Z,15.77
2019-05-20T20:56:56.765Z,13.07
2019-05-20T20:59:50.325Z,13.27
2019-05-20T21:02:20.986Z,20.93
2019-05-20T21:05:00.523Z,27.77
2019-05-20T21:07:33.259Z,30.03
2019-05-20T21:10:20.465Z,18.13
2019-05-20T21:13:04.048Z,20.67
2019-05-20T21:15:34.861Z,22.67
2019-05-20T21:18:19.808Z,25.07
2019-05-20T21:20:51.015Z,18.63
2019-05-20T21:23:21.907Z,14.50
2019-05-20T21:25:52.441Z,16.30
2019-05-20T21:28:22.867Z,14.70
2019-05-20T21:30:53.532Z,19.30
2019-05-20T21:33:24.027Z,18.50
2019-05-20T21:35:54.636Z,17.80
2019-05-20T21:38:25.147Z,21.27
2019-05-20T21:40:55.801Z,23.03
2019-05-20T21:43:26.388Z,24.07
2019-05-20T21:45:56.919Z,32.90
2019-05-20T21:48:27.390Z,34.93
2019-05-20T21:50:57.939Z,40.80
2019-05-20T21:53:28.413Z,44.57
2019-05-20T21:55:58.929Z,46.27
2019-05-20T21:58:29.751Z,47.80
2019-05-20T22:01:00.333Z,44.30
2019-05-20T22:03:31.156Z,49.33
2019-05-20T22:06:01.693Z,43.57
2019-05-20T22:08:32.173Z,36.43
2019-05-20T22:11:02.642Z,30.97
2019-05-20T22:13:33.115Z,31.13
2019-05-20T22:16:06.618Z,32.37
2019-05-20T22:18:37.125Z,34.47
2019-05-20T22:21:09.552Z,29.97
2019-05-20T22:23:45.285Z,26.30
2019-05-20T22:26:18.836Z,28.07
2019-05-20T22:28:49.482Z,27.17
2019-05-20T22:31:19.977Z,29.83
2019-05-20T22:33:50.460Z,27.27
2019-05-20T22:36:21.055Z,25.10
2019-05-20T22:38:51.555Z,18.43
2019-05-20T22:41:22.169Z,23.73
2019-05-20T22:43:52.660Z,22.80
2019-05-20T22:46:23.240Z,20.63
2019-05-20T22:48:53.706Z,22.73
2019-05-20T22:51:24.201Z,23.77
2019-05-20T22:53:54.684Z,23.33
2019-05-20T22:56:25.229Z,25.83
2019-05-20T22:58:55.790Z,22.03
2019-05-20T23:01:26.298Z,27.37
2019-05-20T23:03:56.925Z,25.10
2019-05-20T23:06:27.414Z,26.83
2019-05-20T23:08:58.018Z,27.10
2019-05-20T23:11:28.526Z,30.13
2019-05-20T23:13:58.982Z,32.13
2019-05-20T23:16:29.464Z,41.17
2019-05-20T23:18:59.946Z,30.23
2019-05-20T23:21:30.422Z,36.00
2019-05-20T23:24:00.890Z,35.97
2019-05-20T23:26:31.391Z,28.70
2019-05-20T23:29:01.932Z,31.50
2019-05-20T23:31:32.481Z,29.37
2019-05-20T23:34:12.345Z,32.57
2019-05-20T23:36:35.208Z,38.37
2019-05-20T23:39:07.808Z,35.40
2019-05-20T23:41:38.316Z,29.73
2019-05-20T23:44:08.814Z,34.03
2019-05-20T23:46:41.282Z,34.40
2019-05-20T23:49:11.859Z,35.80
2019-05-20T23:51:42.581Z,32.03
2019-05-20T23:54:13.066Z,28.93
2019-05-20T23:56:45.959Z,25.13
2019-05-20T23:59:16.658Z,26.70
